createdAt,value
2022-12-18T00:01:26.471Z,14.80
2022-12-18T00:03:55.380Z,12.80
2022-12-18T00:06:23.737Z,12.85
2022-12-18T00:08:52.000Z,13.23
2022-12-18T00:11:21.733Z,13.20
2022-12-18T00:13:49.509Z,12.65
2022-12-18T00:16:21.425Z,14.57
2022-12-18T00:18:50.140Z,11.75
2022-12-18T00:21:17.276Z,13.70
2022-12-18T00:23:45.658Z,12.95
2022-12-18T00:26:24.806Z,12.63
2022-12-18T00:28:53.114Z,13.65
2022-12-18T00:31:22.549Z,12.27
2022-12-18T00:33:53.849Z,13.52
2022-12-18T00:36:25.334Z,13.68
2022-12-18T00:38:54.483Z,12.25
2022-12-18T00:41:40.424Z,14.90
2022-12-18T00:44:10.305Z,14.02
2022-12-18T00:46:37.365Z,14.13
2022-12-18T00:49:04.960Z,12.95
2022-12-18T00:51:32.424Z,12.20
2022-12-18T00:53:59.504Z,13.18
2022-12-18T00:56:26.911Z,13.62
2022-12-18T00:58:54.656Z,12.77
2022-12-18T01:01:21.884Z,13.30
2022-12-18T01:03:49.171Z,12.93
2022-12-18T01:06:17.377Z,12.85
2022-12-18T01:08:44.543Z,12.23
2022-12-18T01:11:18.673Z,11.82
2022-12-18T01:13:46.230Z,12.50
2022-12-18T01:16:14.636Z,13.02
2022-12-18T01:18:42.103Z,14.38
2022-12-18T01:21:11.413Z,12.37
2022-12-18T01:23:39.222Z,12.32
2022-12-18T01:26:12.843Z,13.05
2022-12-18T01:28:40.985Z,12.93
2022-12-18T01:31:20.345Z,12.68
2022-12-18T01:33:52.163Z,13.38
2022-12-18T01:36:31.251Z,12.88
2022-12-18T01:39:01.439Z,12.45
2022-12-18T01:41:53.499Z,12.02
2022-12-18T01:44:58.708Z,12.18
2022-12-18T01:47:47.678Z,12.93
2022-12-18T01:50:19.479Z,13.68
2022-12-18T01:52:51.351Z,13.85
2022-12-18T01:55:22.021Z,13.62
2022-12-18T01:57:50.949Z,13.23
2022-12-18T02:00:20.232Z,14.50
2022-12-18T02:02:48.249Z,12.32
2022-12-18T02:05:19.392Z,13.57
2022-12-18T02:08:04.658Z,14.10
2022-12-18T02:10:41.933Z,12.15
2022-12-18T02:13:43.094Z,13.30
2022-12-18T02:16:36.878Z,11.93
2022-12-18T02:19:17.610Z,12.93
2022-12-18T02:22:04.133Z,12.25
2022-12-18T02:24:39.232Z,11.85
2022-12-18T02:27:07.861Z,14.85
2022-12-18T02:29:44.163Z,16.00
2022-12-18T02:32:16.428Z,14.73
2022-12-18T02:34:44.559Z,13.20
2022-12-18T02:37:16.232Z,13.43
2022-12-18T02:39:45.973Z,12.27
2022-12-18T02:42:13.654Z,13.25
2022-12-18T02:44:49.058Z,13.25
2022-12-18T02:47:20.141Z,13.75
2022-12-18T02:50:03.581Z,12.65
2022-12-18T02:52:49.988Z,11.35
2022-12-18T02:55:59.857Z,11.40
2022-12-18T02:58:28.669Z,11.80
2022-12-18T03:01:03.380Z,12.20
2022-12-18T03:03:42.021Z,13.40
2022-12-18T03:06:19.932Z,12.90
2022-12-18T03:08:52.139Z,12.45
2022-12-18T03:11:42.297Z,14.02
2022-12-18T03:14:11.786Z,13.80
2022-12-18T03:16:39.984Z,17.37
2022-12-18T03:19:14.062Z,16.02
2022-12-18T03:21:46.014Z,15.65
2022-12-18T03:24:14.956Z,15.02
2022-12-18T03:26:45.401Z,14.07
2022-12-18T03:29:22.572Z,16.20
2022-12-18T03:31:56.997Z,15.00
2022-12-18T03:34:36.948Z,14.93
2022-12-18T03:37:06.587Z,13.90
2022-12-18T03:39:35.506Z,17.20
2022-12-18T03:42:15.845Z,15.65
2022-12-18T03:44:52.868Z,14.35
2022-12-18T03:47:33.659Z,14.75
2022-12-18T03:50:15.665Z,13.65
2022-12-18T03:52:50.768Z,12.85
2022-12-18T03:55:19.237Z,14.35
2022-12-18T03:57:47.092Z,13.43
2022-12-18T04:00:15.970Z,12.88
2022-12-18T04:02:53.773Z,13.50
2022-12-18T04:05:22.080Z,14.00
2022-12-18T04:07:51.030Z,13.75
2022-12-18T04:10:19.255Z,13.00
2022-12-18T04:12:47.030Z,14.63
2022-12-18T04:15:15.035Z,12.77
2022-12-18T04:17:49.078Z,13.05
2022-12-18T04:20:17.437Z,14.77
2022-12-18T04:22:45.301Z,16.27
2022-12-18T04:25:14.400Z,16.85
2022-12-18T04:27:44.489Z,16.62
2022-12-18T04:30:12.851Z,15.55
2022-12-18T04:32:40.048Z,16.52
2022-12-18T04:35:11.524Z,16.85
2022-12-18T04:37:39.928Z,16.85
2022-12-18T04:40:08.070Z,17.00
2022-12-18T04:42:37.711Z,17.40
2022-12-18T04:45:05.944Z,19.70
2022-12-18T04:47:33.595Z,17.05
2022-12-18T04:50:00.753Z,23.12
2022-12-18T04:52:28.146Z,24.12
2022-12-18T04:54:58.411Z,17.48
2022-12-18T04:57:25.562Z,15.60
2022-12-18T04:59:52.687Z,13.05
2022-12-18T05:02:20.868Z,13.62
2022-12-18T05:04:48.083Z,12.95
2022-12-18T05:07:15.354Z,20.58
2022-12-18T05:09:42.826Z,21.50
2022-12-18T05:12:09.954Z,19.08
2022-12-18T05:14:37.144Z,16.73
2022-12-18T05:17:04.587Z,16.70
2022-12-18T05:19:31.778Z,16.80
2022-12-18T05:21:59.063Z,17.08
2022-12-18T05:24:26.461Z,18.12
2022-12-18T05:26:53.622Z,18.17
2022-12-18T05:29:20.806Z,18.42
2022-12-18T05:31:48.263Z,20.58
2022-12-18T05:34:15.627Z,34.63
2022-12-18T05:36:42.924Z,33.00
2022-12-18T05:39:10.737Z,33.58
2022-12-18T05:41:37.883Z,30.40
2022-12-18T05:44:05.028Z,24.58
2022-12-18T05:46:33.350Z,19.12
2022-12-18T05:49:02.217Z,20.45
2022-12-18T05:51:29.482Z,18.67
2022-12-18T05:53:56.938Z,20.50
2022-12-18T05:56:24.570Z,18.42
2022-12-18T05:58:55.614Z,22.05
2022-12-18T06:01:26.096Z,22.27
2022-12-18T06:03:53.650Z,16.00
2022-12-18T06:06:26.438Z,17.75
2022-12-18T06:08:54.672Z,23.45
2022-12-18T06:11:25.286Z,22.45
2022-12-18T06:13:59.075Z,17.62
2022-12-18T06:16:28.361Z,14.68
2022-12-18T06:18:59.651Z,19.15
2022-12-18T06:21:28.623Z,17.55
2022-12-18T06:23:55.890Z,18.83
2022-12-18T06:26:27.839Z,18.58
2022-12-18T06:28:55.939Z,19.65
2022-12-18T06:31:23.168Z,21.33
2022-12-18T06:33:50.409Z,25.92
2022-12-18T06:36:18.088Z,26.60
2022-12-18T06:38:45.275Z,32.53
2022-12-18T06:41:15.574Z,29.23
2022-12-18T06:43:43.974Z,30.90
2022-12-18T06:46:11.400Z,32.20
2022-12-18T06:48:38.651Z,29.12
2022-12-18T06:51:06.241Z,29.20
2022-12-18T06:53:33.912Z,26.67
2022-12-18T06:56:09.889Z,29.58
2022-12-18T06:58:41.645Z,36.22
2022-12-18T07:01:11.176Z,34.92
2022-12-18T07:03:40.922Z,23.92
2022-12-18T07:06:15.087Z,23.05
2022-12-18T07:08:42.746Z,24.58
2022-12-18T07:11:09.927Z,30.48
2022-12-18T07:13:37.323Z,23.33
2022-12-18T07:16:17.067Z,21.77
2022-12-18T07:18:45.824Z,20.40
2022-12-18T07:21:19.097Z,22.58
2022-12-18T07:23:48.956Z,27.62
2022-12-18T07:26:18.904Z,27.05
2022-12-18T07:28:46.071Z,21.40
2022-12-18T07:31:15.646Z,23.40
2022-12-18T07:33:43.863Z,23.58
2022-12-18T07:36:11.693Z,19.52
2022-12-18T07:38:38.956Z,21.17
2022-12-18T07:41:08.554Z,18.98
2022-12-18T07:43:36.155Z,19.98
2022-12-18T07:46:03.643Z,22.70
2022-12-18T07:48:31.463Z,19.92
2022-12-18T07:51:03.656Z,19.33
2022-12-18T07:53:31.923Z,18.70
2022-12-18T07:56:26.143Z,20.70
2022-12-18T07:58:47.728Z,18.35
2022-12-18T08:01:16.211Z,18.02
2022-12-18T08:03:44.587Z,19.58
2022-12-18T08:06:11.648Z,18.30
2022-12-18T08:08:38.742Z,18.65
2022-12-18T08:11:06.113Z,17.17
2022-12-18T08:13:33.184Z,18.48
2022-12-18T08:16:05.933Z,18.87
2022-12-18T08:18:37.638Z,19.40
2022-12-18T08:21:24.029Z,19.12
2022-12-18T08:23:53.527Z,17.85
2022-12-18T08:26:21.241Z,17.02
2022-12-18T08:28:50.038Z,17.33
2022-12-18T08:31:19.545Z,17.87
2022-12-18T08:33:46.803Z,15.90
2022-12-18T08:36:14.094Z,19.02
2022-12-18T08:38:41.436Z,20.12
2022-12-18T08:41:12.145Z,19.25
2022-12-18T08:43:58.233Z,16.83
2022-12-18T08:46:27.446Z,17.87
2022-12-18T08:48:56.565Z,18.45
2022-12-18T08:51:23.843Z,16.50
2022-12-18T08:53:51.215Z,17.37
2022-12-18T08:56:20.129Z,17.85
2022-12-18T08:58:47.528Z,22.30
2022-12-18T09:01:14.971Z,19.45
2022-12-18T09:03:42.672Z,19.25
2022-12-18T09:06:10.299Z,17.20
2022-12-18T09:08:38.204Z,18.15
2022-12-18T09:11:05.662Z,18.48
2022-12-18T09:13:32.873Z,18.92
2022-12-18T09:16:00.196Z,18.27
2022-12-18T09:18:27.291Z,16.48
2022-12-18T09:20:54.398Z,19.90
2022-12-18T09:23:22.339Z,17.60
2022-12-18T09:25:49.734Z,18.42
2022-12-18T09:28:20.251Z,17.00
2022-12-18T09:30:50.149Z,18.23
2022-12-18T09:33:18.268Z,16.90
2022-12-18T09:35:46.482Z,17.08
2022-12-18T09:38:19.263Z,15.65
2022-12-18T09:40:49.741Z,17.58
2022-12-18T09:43:25.538Z,19.33
2022-12-18T09:45:56.648Z,19.73
2022-12-18T09:48:33.241Z,20.25
2022-12-18T09:51:05.147Z,18.48
2022-12-18T09:53:34.382Z,19.75
2022-12-18T09:56:03.018Z,20.55
2022-12-18T09:58:30.031Z,18.37
2022-12-18T10:00:58.133Z,19.98
2022-12-18T10:03:25.661Z,18.65
2022-12-18T10:06:08.098Z,22.10
2022-12-18T10:08:42.302Z,19.40
2022-12-18T10:11:30.272Z,24.02
2022-12-18T10:14:26.694Z,18.62
2022-12-18T10:16:59.636Z,16.48
2022-12-18T10:19:51.897Z,17.60
2022-12-18T10:23:18.063Z,19.42
2022-12-18T10:26:06.089Z,17.75
2022-12-18T10:28:35.092Z,18.25
2022-12-18T10:31:03.108Z,18.42
2022-12-18T10:33:32.866Z,18.23
2022-12-18T10:36:01.088Z,17.17
2022-12-18T10:38:30.638Z,17.90
2022-12-18T10:41:00.587Z,18.05
2022-12-18T10:43:30.433Z,17.75
2022-12-18T10:46:06.792Z,18.02
2022-12-18T10:49:01.086Z,18.08
2022-12-18T10:51:31.491Z,19.90
2022-12-18T10:54:06.213Z,19.58
2022-12-18T10:56:36.056Z,22.90
2022-12-18T10:59:05.877Z,17.92
2022-12-18T11:01:50.028Z,18.55
2022-12-18T11:04:21.955Z,20.15
2022-12-18T11:07:05.354Z,17.25
2022-12-18T11:09:34.700Z,15.55
2022-12-18T11:12:11.226Z,16.42
2022-12-18T11:14:50.165Z,19.60
2022-12-18T11:17:25.879Z,15.68
2022-12-18T11:19:55.424Z,14.52
2022-12-18T11:22:27.303Z,14.32
2022-12-18T11:25:32.598Z,15.70
2022-12-18T11:28:01.005Z,16.05
2022-12-18T11:30:37.156Z,14.23
2022-12-18T11:33:12.508Z,16.17
2022-12-18T11:35:57.827Z,16.12
2022-12-18T11:38:27.977Z,14.60
2022-12-18T11:41:12.952Z,16.15
2022-12-18T11:43:46.221Z,16.60
2022-12-18T11:46:20.020Z,15.90
2022-12-18T11:51:39.277Z,14.90
2022-12-18T11:54:14.773Z,15.55
2022-12-18T11:56:48.844Z,16.62
2022-12-18T11:59:35.023Z,16.62
2022-12-18T12:02:39.642Z,19.73
2022-12-18T12:05:13.284Z,14.68
2022-12-18T12:08:03.420Z,15.50
2022-12-18T12:10:58.394Z,14.15
2022-12-18T12:13:25.472Z,12.88
2022-12-18T12:16:01.996Z,14.23
2022-12-18T12:18:53.734Z,15.32
2022-12-18T12:21:21.112Z,30.88
2022-12-18T12:24:02.275Z,15.32
2022-12-18T12:26:40.184Z,13.38
2022-12-18T12:29:44.861Z,16.25
2022-12-18T12:32:27.185Z,15.98
2022-12-18T12:35:46.128Z,14.65
2022-12-18T12:38:19.381Z,15.35
2022-12-18T12:41:02.828Z,13.35
2022-12-18T12:43:49.478Z,14.05
2022-12-18T12:46:20.949Z,14.87
2022-12-18T12:49:05.338Z,14.60
2022-12-18T12:51:41.603Z,15.40
2022-12-18T12:54:27.270Z,12.95
2022-12-18T12:57:32.317Z,13.48
2022-12-18T13:00:09.015Z,15.93
2022-12-18T13:02:41.067Z,22.65
2022-12-18T13:05:40.149Z,16.50
2022-12-18T13:08:13.094Z,23.80
2022-12-18T13:10:42.578Z,17.75
2022-12-18T13:13:10.976Z,16.35
2022-12-18T13:15:44.072Z,17.15
2022-12-18T13:18:11.534Z,16.17
2022-12-18T13:20:44.716Z,20.62
2022-12-18T13:23:21.433Z,17.10
2022-12-18T13:28:22.647Z,17.45
2022-12-18T13:30:55.849Z,16.75
2022-12-18T13:33:24.664Z,21.25
2022-12-18T13:35:53.706Z,18.33
2022-12-18T13:38:32.926Z,16.75
2022-12-18T13:41:01.963Z,17.17
2022-12-18T13:43:48.673Z,17.05
2022-12-18T13:46:27.965Z,16.58
2022-12-18T13:49:02.176Z,22.25
2022-12-18T13:51:32.055Z,17.05
2022-12-18T13:54:18.715Z,21.08
2022-12-18T13:56:47.759Z,19.20
2022-12-18T13:59:17.497Z,19.23
2022-12-18T14:01:47.032Z,21.15
2022-12-18T14:04:32.353Z,23.12
2022-12-18T14:09:55.593Z,25.98
2022-12-18T14:12:50.022Z,24.95
2022-12-18T14:15:26.742Z,29.95
2022-12-18T14:17:58.755Z,34.70
2022-12-18T14:20:27.964Z,28.30
2022-12-18T14:22:57.108Z,36.50
2022-12-18T14:25:30.293Z,39.95
2022-12-18T14:28:09.429Z,39.33
2022-12-18T14:30:42.449Z,40.40
2022-12-18T14:33:09.542Z,46.35
2022-12-18T14:35:58.509Z,39.42
2022-12-18T14:38:32.111Z,42.80
2022-12-18T14:41:07.643Z,31.48
2022-12-18T14:43:36.544Z,34.50
2022-12-18T14:46:06.174Z,41.28
2022-12-18T14:48:42.792Z,43.70
2022-12-18T14:51:19.094Z,43.45
2022-12-18T14:54:02.682Z,41.10
2022-12-18T14:56:38.002Z,39.55
2022-12-18T14:59:07.442Z,27.05
2022-12-18T15:01:39.907Z,34.95
2022-12-18T15:04:26.438Z,32.08
2022-12-18T15:07:12.706Z,38.80
2022-12-18T15:09:41.371Z,34.55
2022-12-18T15:12:27.696Z,29.98
2022-12-18T15:14:54.902Z,36.53
2022-12-18T15:17:24.480Z,29.95
2022-12-18T15:19:59.283Z,32.00
2022-12-18T15:22:26.641Z,28.47
2022-12-18T15:24:55.179Z,27.15
2022-12-18T15:27:25.309Z,42.70
2022-12-18T15:30:08.820Z,51.00
2022-12-18T15:32:37.533Z,37.95
2022-12-18T15:35:10.843Z,31.15
2022-12-18T15:37:41.723Z,29.50
2022-12-18T15:40:14.031Z,27.48
2022-12-18T15:43:00.075Z,40.45
2022-12-18T15:45:28.039Z,41.67
2022-12-18T15:47:55.241Z,36.47
2022-12-18T15:50:22.762Z,39.75
2022-12-18T15:52:52.102Z,46.50
2022-12-18T15:55:42.960Z,46.88
2022-12-18T15:58:11.303Z,39.00
2022-12-18T16:00:40.666Z,37.17
2022-12-18T16:03:09.544Z,51.58
2022-12-18T16:05:36.947Z,71.25
2022-12-18T16:08:04.341Z,45.63
2022-12-18T16:10:31.831Z,32.47
2022-12-18T16:12:58.963Z,42.83
2022-12-18T16:15:26.100Z,37.75
2022-12-18T16:17:53.734Z,31.37
2022-12-18T16:20:22.733Z,27.50
2022-12-18T16:22:50.382Z,33.28
2022-12-18T16:25:22.676Z,42.03
2022-12-18T16:27:50.226Z,52.65
2022-12-18T16:30:21.486Z,54.17
2022-12-18T16:32:48.669Z,93.68
2022-12-18T16:35:17.385Z,72.30
2022-12-18T16:37:45.241Z,42.88
2022-12-18T16:40:14.360Z,50.83
2022-12-18T16:42:42.830Z,32.60
2022-12-18T16:45:13.664Z,32.45
2022-12-18T16:47:41.049Z,28.25
2022-12-18T16:50:09.051Z,24.05
2022-12-18T16:52:36.810Z,27.37
2022-12-18T16:55:04.322Z,32.13
2022-12-18T16:57:31.495Z,28.40
2022-12-18T17:00:04.752Z,34.83
2022-12-18T17:02:33.635Z,90.93
2022-12-18T17:05:01.445Z,71.60
2022-12-18T17:07:29.188Z,64.40
2022-12-18T17:09:56.348Z,60.20
2022-12-18T17:12:23.846Z,54.75
2022-12-18T17:14:51.001Z,75.78
2022-12-18T17:17:21.268Z,34.00
2022-12-18T17:19:49.205Z,47.45
2022-12-18T17:22:16.274Z,55.97
2022-12-18T17:24:43.367Z,41.35
2022-12-18T17:27:10.751Z,35.10
2022-12-18T17:29:41.272Z,69.78
2022-12-18T17:32:12.628Z,41.88
2022-12-18T17:34:40.971Z,27.80
2022-12-18T17:37:08.511Z,23.67
2022-12-18T17:39:35.991Z,29.02
2022-12-18T17:42:03.863Z,24.25
2022-12-18T17:44:33.808Z,24.90
2022-12-18T17:47:01.537Z,26.02
2022-12-18T17:49:28.849Z,28.83
2022-12-18T17:51:55.959Z,34.75
2022-12-18T17:54:23.288Z,48.15
2022-12-18T17:56:50.425Z,45.10
2022-12-18T17:59:17.579Z,44.25
2022-12-18T18:01:46.061Z,40.33
2022-12-18T18:04:13.859Z,36.60
2022-12-18T18:06:41.150Z,35.20
2022-12-18T18:09:12.254Z,32.63
2022-12-18T18:12:04.004Z,48.17
2022-12-18T18:14:31.625Z,25.85
2022-12-18T18:17:04.063Z,30.95
2022-12-18T18:19:32.909Z,30.17
2022-12-18T18:22:01.428Z,35.97
2022-12-18T18:24:29.446Z,34.15
2022-12-18T18:26:58.850Z,25.23
2022-12-18T18:29:28.936Z,27.13
2022-12-18T18:31:56.908Z,32.67
2022-12-18T18:34:29.573Z,26.25
2022-12-18T18:36:57.045Z,30.60
2022-12-18T18:39:24.350Z,31.37
2022-12-18T18:41:51.762Z,34.65
2022-12-18T18:44:24.876Z,34.22
2022-12-18T18:46:55.088Z,33.72
2022-12-18T18:49:24.331Z,35.00
2022-12-18T18:51:51.455Z,48.90
2022-12-18T18:54:20.843Z,40.78
2022-12-18T18:59:38.848Z,39.15
2022-12-18T19:02:06.956Z,47.60
2022-12-18T19:04:34.416Z,50.55
2022-12-18T19:07:01.739Z,44.83
2022-12-18T19:09:29.462Z,45.63
2022-12-18T19:12:16.082Z,44.65
2022-12-18T19:14:44.329Z,49.03
2022-12-18T19:17:11.564Z,49.05
2022-12-18T19:19:39.563Z,46.97
2022-12-18T19:22:07.439Z,31.83
2022-12-18T19:24:35.717Z,28.92
2022-12-18T19:27:03.157Z,29.90
2022-12-18T19:29:32.028Z,27.13
2022-12-18T19:31:59.297Z,29.52
2022-12-18T19:34:26.899Z,28.15
2022-12-18T19:36:59.809Z,31.95
2022-12-18T19:39:27.638Z,38.92
2022-12-18T19:41:55.080Z,37.22
2022-12-18T19:44:22.229Z,30.75
2022-12-18T19:46:52.545Z,31.55
2022-12-18T19:49:21.314Z,31.67
2022-12-18T19:51:50.350Z,34.10
2022-12-18T19:54:17.975Z,29.48
2022-12-18T19:56:46.156Z,28.83
2022-12-18T19:59:14.005Z,30.45
2022-12-18T20:01:41.620Z,26.87
2022-12-18T20:04:09.301Z,25.40
2022-12-18T20:06:49.853Z,35.70
2022-12-18T20:09:17.971Z,27.60
2022-12-18T20:11:46.610Z,30.65
2022-12-18T20:14:16.855Z,42.70
2022-12-18T20:16:51.804Z,53.50
2022-12-18T20:19:19.302Z,47.60
2022-12-18T20:21:46.919Z,30.40
2022-12-18T20:24:14.560Z,33.92
2022-12-18T20:26:41.768Z,34.72
2022-12-18T20:29:08.985Z,32.20
2022-12-18T20:31:36.458Z,34.13
2022-12-18T20:34:04.894Z,34.75
2022-12-18T20:36:34.269Z,35.33
2022-12-18T20:39:07.612Z,39.47
2022-12-18T20:41:38.511Z,41.47
2022-12-18T20:44:19.031Z,43.75
2022-12-18T20:46:53.609Z,47.95
2022-12-18T20:49:21.107Z,46.75
2022-12-18T20:51:53.910Z,53.13
2022-12-18T20:54:22.373Z,73.57
2022-12-18T20:56:49.685Z,51.40
2022-12-18T20:59:17.520Z,72.95
2022-12-18T21:01:48.191Z,59.45
2022-12-18T21:04:18.587Z,56.70
2022-12-18T21:07:00.577Z,57.80
2022-12-18T21:09:30.672Z,59.72
2022-12-18T21:12:25.376Z,70.50
2022-12-18T21:14:52.463Z,60.83
2022-12-18T21:17:19.803Z,63.70
2022-12-18T21:19:46.868Z,64.18
2022-12-18T21:22:14.799Z,59.40
2022-12-18T21:24:42.466Z,60.10
2022-12-18T21:27:09.960Z,57.78
2022-12-18T21:29:40.970Z,58.53
2022-12-18T21:32:09.704Z,54.55
2022-12-18T21:34:37.287Z,55.70
2022-12-18T21:37:04.518Z,53.65
2022-12-18T21:39:32.698Z,55.47
2022-12-18T21:42:20.840Z,54.13
2022-12-18T21:44:49.183Z,64.93
2022-12-18T21:47:22.838Z,57.22
2022-12-18T21:49:52.600Z,50.30
2022-12-18T21:52:27.300Z,51.85
2022-12-18T21:55:06.133Z,54.88
2022-12-18T21:57:35.724Z,69.85
2022-12-18T22:00:04.506Z,53.90
2022-12-18T22:02:39.706Z,47.67
2022-12-18T22:05:07.715Z,50.78
2022-12-18T22:07:34.771Z,51.15
2022-12-18T22:10:02.165Z,48.90
2022-12-18T22:12:43.138Z,46.33
2022-12-18T22:15:14.762Z,49.92
2022-12-18T22:17:57.554Z,46.03
2022-12-18T22:20:29.781Z,46.63
2022-12-18T22:22:58.148Z,45.42
2022-12-18T22:25:25.256Z,45.12
2022-12-18T22:28:11.018Z,42.10
2022-12-18T22:30:38.518Z,48.50
2022-12-18T22:33:05.597Z,49.20
2022-12-18T22:35:32.631Z,45.63
2022-12-18T22:38:00.462Z,43.35
2022-12-18T22:40:28.387Z,46.92
2022-12-18T22:42:56.008Z,42.62
2022-12-18T22:45:24.705Z,41.70
2022-12-18T22:47:51.943Z,44.75
2022-12-18T22:50:19.132Z,45.30
2022-12-18T22:52:46.489Z,39.53
2022-12-18T22:55:13.578Z,45.10
2022-12-18T22:57:42.084Z,40.88
2022-12-18T23:00:17.874Z,37.47
2022-12-18T23:03:00.296Z,39.25
2022-12-18T23:05:31.867Z,34.25
2022-12-18T23:07:59.417Z,50.95
2022-12-18T23:10:26.639Z,40.63
2022-12-18T23:12:56.912Z,39.28
2022-12-18T23:15:27.915Z,38.50
2022-12-18T23:17:57.515Z,39.17
2022-12-18T23:20:25.895Z,37.50
2022-12-18T23:22:53.411Z,44.85
2022-12-18T23:25:20.740Z,39.17
2022-12-18T23:27:47.875Z,40.40
2022-12-18T23:30:15.631Z,39.45
2022-12-18T23:32:43.047Z,39.05
2022-12-18T23:35:10.165Z,36.35
2022-12-18T23:37:58.537Z,36.33
2022-12-18T23:40:27.219Z,36.80
2022-12-18T23:42:54.285Z,33.20
2022-12-18T23:45:21.332Z,35.47
2022-12-18T23:47:51.029Z,32.50
2022-12-18T23:50:18.479Z,33.33
2022-12-18T23:52:45.554Z,35.45
2022-12-18T23:55:12.885Z,32.92
2022-12-18T23:57:39.948Z,32.20
